Terminal Aerodrome Forecast
Issued by NWS

Home | Current Version | Previous Version | Text Only | Print | Product List | Glossary On
Versions: 1 2 3 4 5 6 7 8 9 10 11 12 13 14 15 16 17 18 19 20
000
FTUS44 KEWX 161700 RRA
TAFSSF
TAF
KSSF 161741Z 1618/1718 07010KT P6SM SCT025 BKN040
      TEMPO 1620/1622 VRB20G30KT 5SM TSRA BKN030CB
     FM170700 09005KT P6SM BKN025
     FM171400 14005KT P6SM BKN040 PROB30 1714/1718 5SM TSRA
      BKN040CB=

USA.gov is the U.S. government's official web portal to all federal, state and local government web resources and services.